sensor_id;sensor_type;location;lat;lon;timestamp;pressure;altitude;pressure_sealevel;temperature;humidity
9474;BME280;8865;47.636;7.692;2023-12-20T00:01:40;98604.16;;;5.30;100.00
9474;BME280;8865;47.636;7.692;2023-12-20T00:04:06;98594.22;;;5.37;100.00
9474;BME280;8865;47.636;7.692;2023-12-20T00:06:32;98594.13;;;5.39;100.00
9474;BME280;8865;47.636;7.692;2023-12-20T00:08:58;98585.41;;;5.40;100.00
9474;BME280;8865;47.636;7.692;2023-12-20T00:11:24;98579.22;;;5.42;100.00
9474;BME280;8865;47.636;7.692;2023-12-20T00:13:51;98583.72;;;5.39;100.00
9474;BME280;8865;47.636;7.692;2023-12-20T00:16:17;98581.03;;;5.40;100.00
9474;BME280;8865;47.636;7.692;2023-12-20T00:18:43;98582.63;;;5.28;100.00
9474;BME280;8865;47.636;7.692;2023-12-20T00:21:09;98570.97;;;5.05;100.00
9474;BME280;8865;47.636;7.692;2023-12-20T00:23:35;98576.53;;;4.99;100.00
9474;BME280;8865;47.636;7.692;2023-12-20T00:26:01;98582.03;;;5.09;100.00
9474;BME280;8865;47.636;7.692;2023-12-20T00:30:56;98576.56;;;5.13;100.00
9474;BME280;8865;47.636;7.692;2023-12-20T00:33:22;98575.63;;;5.14;100.00
9474;BME280;8865;47.636;7.692;2023-12-20T00:35:48;98575.63;;;5.14;100.00
9474;BME280;8865;47.636;7.692;2023-12-20T00:38:14;98572.84;;;5.03;100.00
9474;BME280;8865;47.636;7.692;2023-12-20T00:40:40;98568.81;;;4.97;100.00
9474;BME280;8865;47.636;7.692;2023-12-20T00:43:06;98562.50;;;4.87;100.00
9474;BME280;8865;47.636;7.692;2023-12-20T00:45:32;98559.56;;;4.93;100.00
9474;BME280;8865;47.636;7.692;2023-12-20T00:47:58;98568.38;;;5.05;100.00
9474;BME280;8865;47.636;7.692;2023-12-20T00:50:25;98561.09;;;5.12;100.00
9474;BME280;8865;47.636;7.692;2023-12-20T00:52:51;98564.06;;;5.20;100.00
9474;BME280;8865;47.636;7.692;2023-12-20T00:55:17;98553.13;;;5.29;100.00
9474;BME280;8865;47.636;7.692;2023-12-20T00:57:43;98557.75;;;5.24;100.00
9474;BME280;8865;47.636;7.692;2023-12-20T01:00:09;98558.84;;;5.20;100.00
9474;BME280;8865;47.636;7.692;2023-12-20T01:02:35;98549.78;;;5.27;100.00
9474;BME280;8865;47.636;7.692;2023-12-20T01:05:01;98560.19;;;5.27;100.00
9474;BME280;8865;47.636;7.692;2023-12-20T01:07:28;98561.66;;;5.31;100.00
9474;BME280;8865;47.636;7.692;2023-12-20T01:09:54;98563.03;;;5.23;100.00
9474;BME280;8865;47.636;7.692;2023-12-20T01:12:20;98559.78;;;5.19;100.00
9474;BME280;8865;47.636;7.692;2023-12-20T01:14:46;98559.03;;;5.17;100.00
9474;BME280;8865;47.636;7.692;2023-12-20T01:17:12;98561.25;;;5.09;100.00
9474;BME280;8865;47.636;7.692;2023-12-20T01:19:38;98557.81;;;5.08;100.00
9474;BME280;8865;47.636;7.692;2023-12-20T01:22:05;98559.22;;;5.14;100.00
9474;BME280;8865;47.636;7.692;2023-12-20T01:24:30;98565.72;;;5.21;100.00
9474;BME280;8865;47.636;7.692;2023-12-20T01:26:57;98561.00;;;5.28;100.00
9474;BME280;8865;47.636;7.692;2023-12-20T01:29:22;98571.88;;;5.34;100.00
9474;BME280;8865;47.636;7.692;2023-12-20T01:31:48;98575.13;;;5.38;100.00
9474;BME280;8865;47.636;7.692;2023-12-20T01:34:14;98582.00;;;5.39;100.00
9474;BME280;8865;47.636;7.692;2023-12-20T01:36:41;98577.25;;;5.31;100.00
9474;BME280;8865;47.636;7.692;2023-12-20T01:39:06;98587.47;;;5.34;100.00
9474;BME280;8865;47.636;7.692;2023-12-20T01:41:32;98589.88;;;5.38;100.00
9474;BME280;8865;47.636;7.692;2023-12-20T01:43:58;98599.91;;;5.44;100.00
9474;BME280;8865;47.636;7.692;2023-12-20T01:46:25;98596.63;;;5.40;100.00
9474;BME280;8865;47.636;7.692;2023-12-20T01:48:51;98605.19;;;5.42;100.00
9474;BME280;8865;47.636;7.692;2023-12-20T01:51:18;98597.25;;;5.29;100.00
9474;BME280;8865;47.636;7.692;2023-12-20T01:53:45;98599.75;;;5.16;100.00
9474;BME280;8865;47.636;7.692;2023-12-20T01:56:11;98597.91;;;5.18;100.00
9474;BME280;8865;47.636;7.692;2023-12-20T01:58:44;98598.34;;;5.11;100.00
9474;BME280;8865;47.636;7.692;2023-12-20T02:01:11;98602.81;;;5.09;100.00
9474;BME280;8865;47.636;7.692;2023-12-20T02:03:40;98600.28;;;5.07;100.00
9474;BME280;8865;47.636;7.692;2023-12-20T02:06:07;98608.81;;;5.09;100.00
9474;BME280;8865;47.636;7.692;2023-12-20T02:08:34;98609.88;;;5.21;100.00
9474;BME280;8865;47.636;7.692;2023-12-20T02:11:00;98603.13;;;5.33;100.00
9474;BME280;8865;47.636;7.692;2023-12-20T02:13:26;98606.56;;;5.48;100.00
9474;BME280;8865;47.636;7.692;2023-12-20T02:15:52;98597.66;;;5.52;100.00
9474;BME280;8865;47.636;7.692;2023-12-20T02:18:18;98599.91;;;5.44;100.00
9474;BME280;8865;47.636;7.692;2023-12-20T02:20:44;98591.66;;;5.51;100.00
9474;BME280;8865;47.636;7.692;2023-12-20T02:23:10;98595.16;;;5.50;100.00
9474;BME280;8865;47.636;7.692;2023-12-20T02:25:36;98591.28;;;5.58;100.00
9474;BME280;8865;47.636;7.692;2023-12-20T02:28:03;98583.22;;;5.62;100.00
9474;BME280;8865;47.636;7.692;2023-12-20T02:30:30;98591.63;;;5.66;100.00
9474;BME280;8865;47.636;7.692;2023-12-20T02:32:56;98585.81;;;5.62;100.00
9474;BME280;8865;47.636;7.692;2023-12-20T02:35:23;98574.19;;;5.53;100.00
9474;BME280;8865;47.636;7.692;2023-12-20T02:37:49;98583.38;;;5.59;100.00
9474;BME280;8865;47.636;7.692;2023-12-20T02:40:16;98572.72;;;5.64;100.00
9474;BME280;8865;47.636;7.692;2023-12-20T02:42:42;98581.06;;;5.69;100.00
9474;BME280;8865;47.636;7.692;2023-12-20T02:45:08;98577.34;;;5.73;100.00
9474;BME280;8865;47.636;7.692;2023-12-20T02:47:34;98576.03;;;5.80;100.00
9474;BME280;8865;47.636;7.692;2023-12-20T02:49:59;98572.22;;;5.86;100.00
9474;BME280;8865;47.636;7.692;2023-12-20T02:52:27;98572.94;;;5.88;100.00
9474;BME280;8865;47.636;7.692;2023-12-20T02:54:53;98570.34;;;5.88;100.00
9474;BME280;8865;47.636;7.692;2023-12-20T02:57:19;98569.25;;;5.92;100.00
9474;BME280;8865;47.636;7.692;2023-12-20T02:59:46;98569.16;;;5.94;100.00
9474;BME280;8865;47.636;7.692;2023-12-20T03:02:12;98577.78;;;5.94;100.00
9474;BME280;8865;47.636;7.692;2023-12-20T03:04:38;98571.66;;;5.95;100.00
9474;BME280;8865;47.636;7.692;2023-12-20T03:07:03;98570.16;;;5.91;100.00
9474;BME280;8865;47.636;7.692;2023-12-20T03:09:29;98581.22;;;5.95;100.00
9474;BME280;8865;47.636;7.692;2023-12-20T03:11:55;98577.44;;;5.86;100.00
9474;BME280;8865;47.636;7.692;2023-12-20T03:14:21;98574.66;;;5.75;100.00
9474;BME280;8865;47.636;7.692;2023-12-20T03:16:51;98576.41;;;5.74;100.00
9474;BME280;8865;47.636;7.692;2023-12-20T03:19:18;98583.66;;;5.69;100.00
9474;BME280;8865;47.636;7.692;2023-12-20T03:21:45;98591.19;;;5.59;100.00
9474;BME280;8865;47.636;7.692;2023-12-20T03:24:11;98589.59;;;5.57;100.00
9474;BME280;8865;47.636;7.692;2023-12-20T03:26:37;98583.38;;;5.59;100.00
9474;BME280;8865;47.636;7.692;2023-12-20T03:29:03;98586.34;;;5.67;100.00
9474;BME280;8865;47.636;7.692;2023-12-20T03:31:29;98592.19;;;5.71;100.00
9474;BME280;8865;47.636;7.692;2023-12-20T03:33:55;98591.91;;;5.76;100.00
9474;BME280;8865;47.636;7.692;2023-12-20T03:36:21;98592.19;;;5.85;100.00
9474;BME280;8865;47.636;7.692;2023-12-20T03:38:47;98591.06;;;5.89;100.00
9474;BME280;8865;47.636;7.692;2023-12-20T03:41:13;98582.25;;;5.92;100.00
9474;BME280;8865;47.636;7.692;2023-12-20T03:43:39;98588.94;;;5.96;100.00
9474;BME280;8865;47.636;7.692;2023-12-20T03:46:05;98580.13;;;5.99;100.00
9474;BME280;8865;47.636;7.692;2023-12-20T03:48:31;98586.81;;;6.03;100.00
9474;BME280;8865;47.636;7.692;2023-12-20T03:50:57;98593.50;;;6.07;100.00
9474;BME280;8865;47.636;7.692;2023-12-20T03:53:23;98592.44;;;6.10;100.00
9474;BME280;8865;47.636;7.692;2023-12-20T03:55:49;98588.09;;;6.10;100.00
9474;BME280;8865;47.636;7.692;2023-12-20T03:58:15;98596.53;;;6.14;100.00
9474;BME280;8865;47.636;7.692;2023-12-20T04:00:41;98599.53;;;6.07;100.00
9474;BME280;8865;47.636;7.692;2023-12-20T04:03:07;98606.31;;;6.10;100.00
9474;BME280;8865;47.636;7.692;2023-12-20T04:05:33;98604.44;;;6.12;100.00
9474;BME280;8865;47.636;7.692;2023-12-20T04:08:01;98607.56;;;6.17;100.00
9474;BME280;8865;47.636;7.692;2023-12-20T04:10:27;98599.59;;;6.20;100.00
9474;BME280;8865;47.636;7.692;2023-12-20T04:12:53;98602.19;;;6.20;100.00
9474;BME280;8865;47.636;7.692;2023-12-20T04:15:20;98598.56;;;6.23;100.00
9474;BME280;8865;47.636;7.692;2023-12-20T04:17:46;98602.38;;;6.17;100.00
9474;BME280;8865;47.636;7.692;2023-12-20T04:20:12;98604.16;;;6.17;100.00
9474;BME280;8865;47.636;7.692;2023-12-20T04:22:38;98617.06;;;6.18;100.00
9474;BME280;8865;47.636;7.692;2023-12-20T04:25:04;98609.34;;;6.17;100.00
9474;BME280;8865;47.636;7.692;2023-12-20T04:27:31;98606.47;;;6.21;100.00
9474;BME280;8865;47.636;7.692;2023-12-20T04:29:56;98609.69;;;6.25;100.00
9474;BME280;8865;47.636;7.692;2023-12-20T04:32:23;98615.09;;;6.22;100.00
9474;BME280;8865;47.636;7.692;2023-12-20T04:34:49;98616.97;;;6.20;100.00
9474;BME280;8865;47.636;7.692;2023-12-20T04:37:15;98614.72;;;6.28;100.00
9474;BME280;8865;47.636;7.692;2023-12-20T04:39:41;98618.91;;;6.31;100.00
9474;BME280;8865;47.636;7.692;2023-12-20T04:42:07;98627.06;;;6.39;100.00
9474;BME280;8865;47.636;7.692;2023-12-20T04:44:33;98628.72;;;6.40;100.00
9474;BME280;8865;47.636;7.692;2023-12-20T04:46:59;98626.03;;;6.41;100.00
9474;BME280;8865;47.636;7.692;2023-12-20T04:49:25;98632.91;;;6.42;100.00
9474;BME280;8865;47.636;7.692;2023-12-20T04:51:51;98631.31;;;6.40;100.00
9474;BME280;8865;47.636;7.692;2023-12-20T04:54:17;98623.28;;;6.30;100.00
9474;BME280;8865;47.636;7.692;2023-12-20T04:56:43;98637.19;;;6.29;100.00
9474;BME280;8865;47.636;7.692;2023-12-20T04:59:09;98633.88;;;6.27;100.00
9474;BME280;8865;47.636;7.692;2023-12-20T05:01:35;98644.09;;;6.30;100.00
9474;BME280;8865;47.636;7.692;2023-12-20T05:04:01;98635.72;;;6.25;100.00
9474;BME280;8865;47.636;7.692;2023-12-20T05:06:28;98637.59;;;6.23;100.00
9474;BME280;8865;47.636;7.692;2023-12-20T05:08:54;98641.09;;;6.22;100.00
9474;BME280;8865;47.636;7.692;2023-12-20T05:11:19;98634.69;;;6.28;100.00
9474;BME280;8865;47.636;7.692;2023-12-20T05:13:45;98640.72;;;6.28;100.00
9474;BME280;8865;47.636;7.692;2023-12-20T05:16:11;98645.19;;;6.26;100.00
9474;BME280;8865;47.636;7.692;2023-12-20T05:18:40;98647.78;;;6.26;100.00
9474;BME280;8865;47.636;7.692;2023-12-20T05:21:06;98638.31;;;6.25;100.00
9474;BME280;8865;47.636;7.692;2023-12-20T05:23:32;98651.69;;;6.19;100.00
9474;BME280;8865;47.636;7.692;2023-12-20T05:25:58;98645.38;;;6.23;100.00
9474;BME280;8865;47.636;7.692;2023-12-20T05:28:24;98639.25;;;6.24;100.00
9474;BME280;8865;47.636;7.692;2023-12-20T05:30:51;98649.28;;;6.30;100.00
9474;BME280;8865;47.636;7.692;2023-12-20T05:33:17;98661.44;;;6.30;100.00
9474;BME280;8865;47.636;7.692;2023-12-20T05:35:43;98656.31;;;6.28;100.00
9474;BME280;8865;47.636;7.692;2023-12-20T05:38:09;98651.13;;;6.28;100.00
9474;BME280;8865;47.636;7.692;2023-12-20T05:40:35;98663.88;;;6.33;100.00
9474;BME280;8865;47.636;7.692;2023-12-20T05:43:01;98671.59;;;6.34;100.00
9474;BME280;8865;47.636;7.692;2023-12-20T05:45:28;98671.84;;;6.44;100.00
9474;BME280;8865;47.636;7.692;2023-12-20T05:47:54;98668.13;;;6.48;100.00
9474;BME280;8865;47.636;7.692;2023-12-20T05:50:20;98663.22;;;6.43;100.00
9474;BME280;8865;47.636;7.692;2023-12-20T05:52:46;98671.59;;;6.34;100.00
9474;BME280;8865;47.636;7.692;2023-12-20T05:55:12;98675.75;;;6.37;100.00
9474;BME280;8865;47.636;7.692;2023-12-20T05:57:38;98682.44;;;6.41;100.00
9474;BME280;8865;47.636;7.692;2023-12-20T06:00:05;98679.84;;;6.41;100.00
9474;BME280;8865;47.636;7.692;2023-12-20T06:02:31;98676.03;;;6.47;100.00
9474;BME280;8865;47.636;7.692;2023-12-20T06:04:58;98679.66;;;6.44;100.00
9474;BME280;8865;47.636;7.692;2023-12-20T06:07:24;98674.53;;;6.42;100.00
9474;BME280;8865;47.636;7.692;2023-12-20T06:09:50;98670.53;;;6.37;100.00
9474;BME280;8865;47.636;7.692;2023-12-20T06:12:16;98676.88;;;6.33;100.00
9474;BME280;8865;47.636;7.692;2023-12-20T06:14:42;98687.25;;;6.47;100.00
9474;BME280;8865;47.636;7.692;2023-12-20T06:17:08;98691.72;;;6.45;100.00
9474;BME280;8865;47.636;7.692;2023-12-20T06:19:34;98694.78;;;6.52;100.00
9474;BME280;8865;47.636;7.692;2023-12-20T06:22:00;98693.84;;;6.53;100.00
9474;BME280;8865;47.636;7.692;2023-12-20T06:24:26;98696.25;;;6.56;100.00
9474;BME280;8865;47.636;7.692;2023-12-20T06:26:54;98693.28;;;6.48;100.00
9474;BME280;8865;47.636;7.692;2023-12-20T06:29:21;98695.78;;;6.49;100.00
9474;BME280;8865;47.636;7.692;2023-12-20T06:31:47;98700.63;;;6.55;100.00
9474;BME280;8865;47.636;7.692;2023-12-20T06:34:13;98697.38;;;6.52;100.00
9474;BME280;8865;47.636;7.692;2023-12-20T06:36:39;98700.16;;;6.49;100.00
9474;BME280;8865;47.636;7.692;2023-12-20T06:39:05;98698.31;;;6.51;100.00
9474;BME280;8865;47.636;7.692;2023-12-20T06:41:30;98698.97;;;6.54;100.00
9474;BME280;8865;47.636;7.692;2023-12-20T06:43:56;98700.81;;;6.52;100.00
9474;BME280;8865;47.636;7.692;2023-12-20T06:46:23;98704.25;;;6.53;100.00
9474;BME280;8865;47.636;7.692;2023-12-20T06:48:49;98709.47;;;6.53;100.00
9474;BME280;8865;47.636;7.692;2023-12-20T06:51:16;98702.59;;;6.52;100.00
9474;BME280;8865;47.636;7.692;2023-12-20T06:53:42;98705.81;;;6.55;100.00
9474;BME280;8865;47.636;7.692;2023-12-20T06:56:10;98703.50;;;6.51;100.00
9474;BME280;8865;47.636;7.692;2023-12-20T06:58:37;98710.09;;;6.56;100.00
9474;BME280;8865;47.636;7.692;2023-12-20T07:01:04;98716.22;;;6.55;100.00
9474;BME280;8865;47.636;7.692;2023-12-20T07:03:30;98721.06;;;6.61;100.00
9474;BME280;8865;47.636;7.692;2023-12-20T07:05:56;98715.94;;;6.60;100.00
9474;BME280;8865;47.636;7.692;2023-12-20T07:08:22;98721.25;;;6.58;100.00
9474;BME280;8865;47.636;7.692;2023-12-20T07:10:48;98726.94;;;6.65;100.00
9474;BME280;8865;47.636;7.692;2023-12-20T07:13:14;98727.66;;;6.67;100.00
9474;BME280;8865;47.636;7.692;2023-12-20T07:15:40;98734.88;;;6.76;100.00
9474;BME280;8865;47.636;7.692;2023-12-20T07:18:06;98732.56;;;6.72;100.00
9474;BME280;8865;47.636;7.692;2023-12-20T07:20:33;98744.94;;;6.68;100.00
9474;BME280;8865;47.636;7.692;2023-12-20T07:22:59;98744.00;;;6.69;100.00
9474;BME280;8865;47.636;7.692;2023-12-20T07:25:25;98739.56;;;6.71;100.00
9474;BME280;8865;47.636;7.692;2023-12-20T07:27:51;98736.38;;;6.66;100.00
9474;BME280;8865;47.636;7.692;2023-12-20T07:30:17;98738.78;;;6.69;100.00
9474;BME280;8865;47.636;7.692;2023-12-20T07:32:43;98736.66;;;6.61;100.00
9474;BME280;8865;47.636;7.692;2023-12-20T07:35:09;98740.22;;;6.60;100.00
9474;BME280;8865;47.636;7.692;2023-12-20T07:37:35;98748.38;;;6.69;100.00
9474;BME280;8865;47.636;7.692;2023-12-20T07:40:01;98752.38;;;6.74;100.00
9474;BME280;8865;47.636;7.692;2023-12-20T07:42:27;98762.78;;;6.74;100.00
9474;BME280;8865;47.636;7.692;2023-12-20T07:44:53;98761.75;;;6.77;100.00
9474;BME280;8865;47.636;7.692;2023-12-20T07:47:20;98776.06;;;6.84;100.00
9474;BME280;8865;47.636;7.692;2023-12-20T07:49:50;98774.75;;;6.91;100.00
9474;BME280;8865;47.636;7.692;2023-12-20T07:52:18;98774.66;;;6.93;100.00
9474;BME280;8865;47.636;7.692;2023-12-20T07:54:45;98775.38;;;6.95;100.00
9474;BME280;8865;47.636;7.692;2023-12-20T07:57:11;98776.22;;;6.95;100.00
9474;BME280;8865;47.636;7.692;2023-12-20T07:59:37;98792.50;;;6.99;100.00
9474;BME280;8865;47.636;7.692;2023-12-20T08:02:04;98801.69;;;7.05;100.00
9474;BME280;8865;47.636;7.692;2023-12-20T08:04:30;98800.66;;;7.07;100.00
9474;BME280;8865;47.636;7.692;2023-12-20T08:06:56;98788.38;;;7.09;100.00
9474;BME280;8865;47.636;7.692;2023-12-20T08:09:22;98788.38;;;7.09;100.00
9474;BME280;8865;47.636;7.692;2023-12-20T08:11:49;98790.03;;;7.10;100.00
9474;BME280;8865;47.636;7.692;2023-12-20T08:14:15;98792.56;;;7.12;100.00
9474;BME280;8865;47.636;7.692;2023-12-20T08:16:41;98797.47;;;7.17;100.00
9474;BME280;8865;47.636;7.692;2023-12-20T08:19:08;98795.50;;;7.20;100.00
9474;BME280;8865;47.636;7.692;2023-12-20T08:21:34;98791.34;;;7.18;100.00
9474;BME280;8865;47.636;7.692;2023-12-20T08:24:00;98803.50;;;7.17;100.00
9474;BME280;8865;47.636;7.692;2023-12-20T08:26:29;98800.72;;;7.20;100.00
9474;BME280;8865;47.636;7.692;2023-12-20T08:28:55;98799.06;;;7.19;100.00
9474;BME280;8865;47.636;7.692;2023-12-20T08:31:21;98797.81;;;7.25;100.00
9474;BME280;8865;47.636;7.692;2023-12-20T08:33:48;98803.88;;;7.25;100.00
9474;BME280;8865;47.636;7.692;2023-12-20T08:36:15;98797.22;;;7.34;100.00
9474;BME280;8865;47.636;7.692;2023-12-20T08:38:44;98796.59;;;7.30;100.00
9474;BME280;8865;47.636;7.692;2023-12-20T08:41:09;98798.56;;;7.27;100.00
9474;BME280;8865;47.636;7.692;2023-12-20T08:43:36;98796.50;;;7.32;100.00
9474;BME280;8865;47.636;7.692;2023-12-20T08:46:02;98796.59;;;7.30;100.00
9474;BME280;8865;47.636;7.692;2023-12-20T08:48:28;98793.44;;;7.25;100.00
9474;BME280;8865;47.636;7.692;2023-12-20T08:50:54;98798.75;;;7.24;100.00
9474;BME280;8865;47.636;7.692;2023-12-20T08:53:20;98789.06;;;7.26;100.00
9474;BME280;8865;47.636;7.692;2023-12-20T08:55:46;98799.50;;;7.26;100.00
9474;BME280;8865;47.636;7.692;2023-12-20T08:58:13;98803.38;;;7.33;100.00
9474;BME280;8865;47.636;7.692;2023-12-20T09:00:40;98797.50;;;7.29;100.00
9474;BME280;8865;47.636;7.692;2023-12-20T09:03:06;98801.91;;;7.29;100.00
9474;BME280;8865;47.636;7.692;2023-12-20T09:05:32;98810.09;;;7.23;100.00
9474;BME280;8865;47.636;7.692;2023-12-20T09:07:57;98815.56;;;7.32;100.00
9474;BME280;8865;47.636;7.692;2023-12-20T09:10:24;98808.91;;;7.28;100.00
9474;BME280;8865;47.636;7.692;2023-12-20T09:12:51;98814.84;;;7.30;100.00
9474;BME280;8865;47.636;7.692;2023-12-20T09:15:17;98823.66;;;7.28;100.00
9474;BME280;8865;47.636;7.692;2023-12-20T09:17:43;98830.16;;;7.35;100.00
9474;BME280;8865;47.636;7.692;2023-12-20T09:20:09;98823.75;;;7.41;100.00
9474;BME280;8865;47.636;7.692;2023-12-20T09:22:36;98821.75;;;7.44;100.00
9474;BME280;8865;47.636;7.692;2023-12-20T09:25:04;98819.31;;;7.28;100.00
9474;BME280;8865;47.636;7.692;2023-12-20T09:27:31;98822.59;;;7.18;100.00
9474;BME280;8865;47.636;7.692;2023-12-20T09:29:57;98819.31;;;7.28;100.00
9474;BME280;8865;47.636;7.692;2023-12-20T09:32:23;98821.06;;;7.28;100.00
9474;BME280;8865;47.636;7.692;2023-12-20T09:34:49;98819.66;;;7.37;100.00
9474;BME280;8865;47.636;7.692;2023-12-20T09:37:16;98822.31;;;7.49;100.00
9474;BME280;8865;47.636;7.692;2023-12-20T09:39:42;98819.22;;;7.57;100.00
9474;BME280;8865;47.636;7.692;2023-12-20T09:42:11;98820.97;;;7.57;100.00
9474;BME280;8865;47.636;7.692;2023-12-20T09:44:38;98828.19;;;7.66;100.00
9474;BME280;8865;47.636;7.692;2023-12-20T09:47:08;98818.63;;;7.66;100.00
9474;BME280;8865;47.636;7.692;2023-12-20T09:49:34;98822.78;;;7.69;100.00
9474;BME280;8865;47.636;7.692;2023-12-20T09:52:01;98825.53;;;7.80;100.00
9474;BME280;8865;47.636;7.692;2023-12-20T09:54:30;98818.16;;;8.00;100.00
9474;BME280;8865;47.636;7.692;2023-12-20T09:56:56;98810.97;;;8.16;100.00
9474;BME280;8865;47.636;7.692;2023-12-20T09:59:22;98806.19;;;8.36;100.00
9474;BME280;8865;47.636;7.692;2023-12-20T10:01:48;98799.84;;;8.53;100.00
9474;BME280;8865;47.636;7.692;2023-12-20T10:04:16;98798.50;;;8.60;100.00
9474;BME280;8865;47.636;7.692;2023-12-20T10:06:43;98791.59;;;8.59;100.00
9474;BME280;8865;47.636;7.692;2023-12-20T10:09:11;98783.34;;;8.65;100.00
9474;BME280;8865;47.636;7.692;2023-12-20T10:11:38;98786.88;;;8.77;100.00
9474;BME280;8865;47.636;7.692;2023-12-20T10:14:06;98784.25;;;9.14;100.00
9474;BME280;8865;47.636;7.692;2023-12-20T10:16:33;98762.22;;;10.00;100.00
9474;BME280;8865;47.636;7.692;2023-12-20T10:19:00;98752.34;;;10.95;100.00
9474;BME280;8865;47.636;7.692;2023-12-20T10:21:27;98740.13;;;11.60;100.00
9474;BME280;8865;47.636;7.692;2023-12-20T10:23:56;98738.53;;;12.11;100.00
9474;BME280;8865;47.636;7.692;2023-12-20T10:26:24;98730.56;;;12.22;100.00
9474;BME280;8865;47.636;7.692;2023-12-20T10:28:53;98724.75;;;13.68;100.00
9474;BME280;8865;47.636;7.692;2023-12-20T10:31:30;98723.06;;;15.17;86.19
9474;BME280;8865;47.636;7.692;2023-12-20T10:34:00;98714.50;;;17.90;64.45
9474;BME280;8865;47.636;7.692;2023-12-20T10:36:29;98724.16;;;20.62;50.38
9474;BME280;8865;47.636;7.692;2023-12-20T10:38:56;98726.25;;;22.88;43.75
9474;BME280;8865;47.636;7.692;2023-12-20T10:41:29;98714.09;;;24.72;38.08
9474;BME280;8865;47.636;7.692;2023-12-20T10:44:00;98711.47;;;26.55;33.64
9474;BME280;8865;47.636;7.692;2023-12-20T10:46:27;98704.63;;;27.74;31.77
9474;BME280;8865;47.636;7.692;2023-12-20T10:48:57;98698.72;;;28.48;29.70
9474;BME280;8865;47.636;7.692;2023-12-20T10:51:24;98694.75;;;29.20;27.93
9474;BME280;8865;47.636;7.692;2023-12-20T10:53:53;98698.69;;;26.88;27.89
9474;BME280;8865;47.636;7.692;2023-12-20T10:56:20;98682.09;;;28.63;27.74
9474;BME280;8865;47.636;7.692;2023-12-20T10:58:48;98680.19;;;27.76;27.44
9474;BME280;8865;47.636;7.692;2023-12-20T11:01:19;98684.72;;;27.87;27.09
9474;BME280;8865;47.636;7.692;2023-12-20T11:03:53;98682.44;;;27.25;28.15
9474;BME280;8865;47.636;7.692;2023-12-20T11:08:56;98689.38;;;22.21;34.85
9474;BME280;8865;47.636;7.692;2023-12-20T11:11:40;98691.66;;;19.92;38.65
9474;BME280;8865;47.636;7.692;2023-12-20T11:14:22;98681.94;;;22.17;36.18
9474;BME280;8865;47.636;7.692;2023-12-20T11:16:49;98677.34;;;22.94;35.16
9474;BME280;8865;47.636;7.692;2023-12-20T11:19:17;98680.28;;;24.19;32.65
9474;BME280;8865;47.636;7.692;2023-12-20T11:21:43;98686.59;;;24.90;31.55
9474;BME280;8865;47.636;7.692;2023-12-20T11:24:09;98680.63;;;25.59;30.47
9474;BME280;8865;47.636;7.692;2023-12-20T11:26:36;98683.78;;;25.74;28.20
9474;BME280;8865;47.636;7.692;2023-12-20T11:29:34;98696.25;;;26.49;27.10
9474;BME280;8865;47.636;7.692;2023-12-20T11:32:04;98691.31;;;25.34;28.56
9474;BME280;8865;47.636;7.692;2023-12-20T11:34:51;98689.94;;;21.82;32.26
9474;BME280;8865;47.636;7.692;2023-12-20T11:37:19;98700.47;;;22.67;32.74
9474;BME280;8865;47.636;7.692;2023-12-20T11:39:45;98708.59;;;20.95;35.33
9474;BME280;8865;47.636;7.692;2023-12-20T11:42:19;98696.88;;;18.22;39.22
9474;BME280;8865;47.636;7.692;2023-12-20T11:44:46;98701.00;;;16.41;45.32
9474;BME280;8865;47.636;7.692;2023-12-20T11:47:12;98691.75;;;19.22;41.09
9474;BME280;8865;47.636;7.692;2023-12-20T11:49:39;98693.13;;;20.54;38.95
9474;BME280;8865;47.636;7.692;2023-12-20T11:52:06;98695.69;;;20.77;38.10
9474;BME280;8865;47.636;7.692;2023-12-20T11:54:32;98688.78;;;18.94;40.95
9474;BME280;8865;47.636;7.692;2023-12-20T11:56:58;98686.88;;;17.51;43.13
9474;BME280;8865;47.636;7.692;2023-12-20T11:59:24;98700.19;;;15.62;48.63
9474;BME280;8865;47.636;7.692;2023-12-20T12:01:50;98693.56;;;14.58;55.12
9474;BME280;8865;47.636;7.692;2023-12-20T12:04:17;98700.16;;;12.20;72.49
9474;BME280;8865;47.636;7.692;2023-12-20T12:06:44;98700.50;;;11.84;90.84
9474;BME280;8865;47.636;7.692;2023-12-20T12:09:12;98702.97;;;12.07;89.97
9474;BME280;8865;47.636;7.692;2023-12-20T12:11:38;98704.44;;;12.21;88.18
9474;BME280;8865;47.636;7.692;2023-12-20T12:14:06;98681.50;;;14.84;70.69
9474;BME280;8865;47.636;7.692;2023-12-20T12:16:32;98683.53;;;17.90;51.69
9474;BME280;8865;47.636;7.692;2023-12-20T12:18:59;98690.53;;;18.70;44.53
9474;BME280;8865;47.636;7.692;2023-12-20T12:21:25;98690.50;;;16.66;46.95
9474;BME280;8865;47.636;7.692;2023-12-20T12:23:51;98693.09;;;15.81;51.47
9474;BME280;8865;47.636;7.692;2023-12-20T12:26:18;98694.00;;;14.54;55.18
9474;BME280;8865;47.636;7.692;2023-12-20T12:28:44;98691.09;;;13.03;63.42
9474;BME280;8865;47.636;7.692;2023-12-20T12:31:14;98713.50;;;11.86;73.23
9474;BME280;8865;47.636;7.692;2023-12-20T12:33:41;98706.69;;;11.08;81.86
9474;BME280;8865;47.636;7.692;2023-12-20T12:36:07;98709.47;;;10.96;92.57
9474;BME280;8865;47.636;7.692;2023-12-20T12:38:34;98720.06;;;9.81;99.42
9474;BME280;8865;47.636;7.692;2023-12-20T12:41:00;98719.41;;;10.01;100.00
9474;BME280;8865;47.636;7.692;2023-12-20T12:43:26;98716.91;;;10.00;100.00
9474;BME280;8865;47.636;7.692;2023-12-20T12:45:53;98733.03;;;9.71;100.00
9474;BME280;8865;47.636;7.692;2023-12-20T12:48:19;98741.69;;;9.12;100.00
9474;BME280;8865;47.636;7.692;2023-12-20T12:50:46;98743.13;;;8.68;100.00
9474;BME280;8865;47.636;7.692;2023-12-20T12:53:12;98738.44;;;8.34;100.00
9474;BME280;8865;47.636;7.692;2023-12-20T12:55:38;98741.91;;;8.22;100.00
9474;BME280;8865;47.636;7.692;2023-12-20T12:58:04;98745.00;;;7.89;100.00
9474;BME280;8865;47.636;7.692;2023-12-20T13:00:30;98748.25;;;8.18;100.00
9474;BME280;8865;47.636;7.692;2023-12-20T13:02:56;98744.81;;;7.92;100.00
9474;BME280;8865;47.636;7.692;2023-12-20T13:05:22;98749.50;;;7.86;100.00
9474;BME280;8865;47.636;7.692;2023-12-20T13:07:48;98757.63;;;7.82;100.00
9474;BME280;8865;47.636;7.692;2023-12-20T13:10:14;98749.50;;;7.86;100.00
9474;BME280;8865;47.636;7.692;2023-12-20T13:12:43;98748.88;;;8.09;100.00
9474;BME280;8865;47.636;7.692;2023-12-20T13:15:09;98737.94;;;8.03;100.00
9474;BME280;8865;47.636;7.692;2023-12-20T13:17:36;98742.72;;;8.22;100.00
9474;BME280;8865;47.636;7.692;2023-12-20T13:20:03;98740.09;;;8.22;100.00
9474;BME280;8865;47.636;7.692;2023-12-20T13:22:29;98735.81;;;8.21;100.00
9474;BME280;8865;47.636;7.692;2023-12-20T13:24:55;98740.34;;;8.07;100.00